createdAt,value
2022-10-23T00:02:56.754Z,98012.91
2022-10-23T00:06:58.793Z,98014.06
2022-10-23T00:11:00.857Z,98020.41
2022-10-23T00:15:02.913Z,98020.56
2022-10-23T00:19:05.871Z,98012.38
2022-10-23T00:23:07.920Z,98010.16
2022-10-23T00:27:10.044Z,98019.47
2022-10-23T00:31:12.961Z,98019.16
2022-10-23T00:35:15.872Z,98014.69
2022-10-23T00:39:17.863Z,98010.09
2022-10-23T00:43:24.019Z,98018.72
2022-10-23T00:47:26.237Z,98006.78
2022-10-23T00:51:33.140Z,98001.38
2022-10-23T00:55:36.060Z,97988.41
2022-10-23T00:59:38.114Z,97979.81
2022-10-23T01:03:41.666Z,97964.19
2022-10-23T01:07:50.810Z,97972.06
2022-10-23T01:12:15.974Z,97964.34
2022-10-23T01:16:26.881Z,97965.47
2022-10-23T01:20:55.713Z,97957.81
2022-10-23T01:25:15.681Z,97961.38
2022-10-23T01:29:36.641Z,97961.38
2022-10-23T01:33:48.152Z,97965.69
2022-10-23T01:38:19.372Z,97953.50
2022-10-23T01:42:28.254Z,97957.97
2022-10-23T01:46:31.851Z,97948.63
2022-10-23T01:50:35.628Z,97948.91
2022-10-23T01:54:42.932Z,97943.41
2022-10-23T01:58:48.215Z,97945.38
2022-10-23T02:02:52.571Z,97955.25
2022-10-23T02:06:56.600Z,97946.84
2022-10-23T02:11:08.253Z,97931.28
2022-10-23T02:15:12.191Z,97917.25
2022-10-23T02:19:35.269Z,97926.81
2022-10-23T02:23:59.537Z,97913.84
2022-10-23T02:28:07.511Z,97922.63
2022-10-23T02:32:20.469Z,97924.72
2022-10-23T02:36:24.048Z,97914.44
2022-10-23T02:40:40.983Z,97915.63
2022-10-23T02:44:58.246Z,97912.44
2022-10-23T02:49:13.792Z,97903.03
2022-10-23T02:53:32.539Z,97895.22
2022-10-23T02:57:44.768Z,97892.81
2022-10-23T03:02:02.835Z,97881.72
2022-10-23T03:06:06.509Z,97887.25
2022-10-23T03:10:10.527Z,97904.66
2022-10-23T03:14:13.492Z,97904.53
2022-10-23T03:18:15.538Z,97898.50
2022-10-23T03:22:22.365Z,97907.38
2022-10-23T03:26:24.428Z,97901.47
2022-10-23T03:30:26.741Z,97894.31
2022-10-23T03:34:30.447Z,97895.88
2022-10-23T03:38:32.505Z,97895.75
2022-10-23T03:42:34.778Z,97899.22
2022-10-23T03:46:36.869Z,97874.19
2022-10-23T03:50:39.351Z,97872.19
2022-10-23T03:54:41.389Z,97884.88
2022-10-23T03:58:43.655Z,97887.69
2022-10-23T04:02:46.061Z,97878.06
2022-10-23T04:06:48.486Z,97881.38
2022-10-23T04:10:51.053Z,97885.66
2022-10-23T04:14:56.464Z,97880.22
2022-10-23T04:18:58.460Z,97876.59
2022-10-23T04:23:00.463Z,97864.81
2022-10-23T04:27:02.656Z,97872.16
2022-10-23T04:31:05.493Z,97875.69
2022-10-23T04:35:08.804Z,97880.03
2022-10-23T04:39:11.167Z,97876.59
2022-10-23T04:43:13.208Z,97881.25
2022-10-23T04:47:15.715Z,97874.47
2022-10-23T04:51:29.431Z,97866.81
2022-10-23T04:55:49.663Z,97870.78
2022-10-23T04:59:57.926Z,97856.28
2022-10-23T05:04:00.088Z,97880.34
2022-10-23T05:08:02.212Z,97878.09
2022-10-23T05:12:13.188Z,97872.09
2022-10-23T05:16:42.142Z,97848.84
2022-10-23T05:20:49.539Z,97845.16
2022-10-23T05:24:53.262Z,97844.78
2022-10-23T05:28:59.023Z,97843.00
2022-10-23T05:33:03.620Z,97842.16
2022-10-23T05:37:14.457Z,97837.13
2022-10-23T05:41:17.273Z,97838.88
2022-10-23T05:45:19.530Z,97840.75
2022-10-23T05:50:00.031Z,97841.38
2022-10-23T05:54:24.893Z,97834.75
2022-10-23T05:58:49.898Z,97835.25
2022-10-23T06:03:06.702Z,97825.22
2022-10-23T06:07:16.200Z,97820.44
2022-10-23T06:11:20.380Z,97819.34
2022-10-23T06:15:31.513Z,97818.28
2022-10-23T06:19:41.575Z,97806.69
2022-10-23T06:23:45.082Z,97807.31
2022-10-23T06:28:11.249Z,97808.09
2022-10-23T06:32:13.560Z,97810.66
2022-10-23T06:36:20.485Z,97801.81
2022-10-23T06:40:23.264Z,97802.53
2022-10-23T06:44:37.317Z,97813.63
2022-10-23T06:48:44.973Z,97805.47
2022-10-23T06:52:54.408Z,97813.97
2022-10-23T06:56:57.431Z,97798.81
2022-10-23T07:01:12.484Z,97807.94
2022-10-23T07:05:17.743Z,97790.72
2022-10-23T07:09:20.033Z,97791.19
2022-10-23T07:13:27.740Z,97804.69
2022-10-23T07:17:46.695Z,97808.53
2022-10-23T07:21:48.864Z,97808.91
2022-10-23T07:26:17.194Z,97799.78
2022-10-23T07:30:19.535Z,97804.53
2022-10-23T07:34:27.306Z,97802.31
2022-10-23T07:38:47.179Z,97795.63
2022-10-23T07:42:50.051Z,97797.22
2022-10-23T07:46:53.525Z,97791.63
2022-10-23T07:51:01.503Z,97809.84
2022-10-23T07:55:04.093Z,97797.28
2022-10-23T07:59:12.868Z,97797.84
2022-10-23T08:03:15.652Z,97797.25
2022-10-23T08:07:17.915Z,97794.44
2022-10-23T08:11:27.880Z,97796.13
2022-10-23T08:15:30.801Z,97798.06
2022-10-23T08:19:39.778Z,97793.84
2022-10-23T08:23:43.052Z,97790.41
2022-10-23T08:27:45.514Z,97792.97
2022-10-23T08:31:49.307Z,97788.47
2022-10-23T08:36:05.452Z,97791.00
2022-10-23T08:40:23.869Z,97784.25
2022-10-23T08:45:11.397Z,97786.38
2022-10-23T08:49:28.700Z,97792.03
2022-10-23T08:53:59.712Z,97771.97
2022-10-23T08:58:07.641Z,97777.81
2022-10-23T09:02:09.927Z,97767.44
2022-10-23T09:06:30.863Z,97769.59
2022-10-23T09:10:49.321Z,97780.63
2022-10-23T09:15:07.097Z,97786.13
2022-10-23T09:19:19.616Z,97780.75
2022-10-23T09:23:23.728Z,97763.47
2022-10-23T09:27:25.786Z,97757.31
2022-10-23T09:31:27.769Z,97739.19
2022-10-23T09:35:30.625Z,97735.94
2022-10-23T09:39:35.320Z,97742.41
2022-10-23T09:43:37.525Z,97746.53
2022-10-23T09:47:41.803Z,97744.66
2022-10-23T09:52:10.177Z,97757.50
2022-10-23T09:56:39.915Z,97759.41
2022-10-23T10:00:48.057Z,97756.00
2022-10-23T10:04:51.227Z,97767.22
2022-10-23T10:08:56.827Z,97779.28
2022-10-23T10:13:13.003Z,97764.81
2022-10-23T10:17:35.497Z,97755.47
2022-10-23T10:21:56.454Z,97732.97
2022-10-23T10:26:16.215Z,97731.66
2022-10-23T10:30:21.192Z,97729.97
2022-10-23T10:34:30.211Z,97722.44
2022-10-23T10:38:50.246Z,97718.13
2022-10-23T10:43:35.513Z,97704.13
2022-10-23T10:48:19.205Z,97702.34
2022-10-23T10:53:10.256Z,97705.72
2022-10-23T10:57:32.025Z,97703.78
2022-10-23T11:01:42.935Z,97715.31
2022-10-23T11:05:49.010Z,97707.56
2022-10-23T11:09:52.259Z,97688.38
2022-10-23T11:13:54.432Z,97690.09
2022-10-23T11:18:06.768Z,97685.56
2022-10-23T11:22:36.519Z,97679.03
2022-10-23T11:27:26.395Z,97666.66
2022-10-23T11:32:02.137Z,97660.25
2022-10-23T11:36:16.451Z,97655.72
2022-10-23T11:40:23.927Z,97642.41
2022-10-23T11:44:38.086Z,97644.50
2022-10-23T11:48:43.147Z,97663.53
2022-10-23T11:53:20.876Z,97672.41
2022-10-23T11:57:23.385Z,97646.72
2022-10-23T12:01:36.240Z,97630.34
2022-10-23T12:05:42.078Z,97621.66
2022-10-23T12:09:46.674Z,97622.69
2022-10-23T12:13:48.819Z,97621.50
2022-10-23T12:17:54.243Z,97615.66
2022-10-23T12:22:03.515Z,97619.00
2022-10-23T12:26:16.794Z,97601.66
2022-10-23T12:30:34.113Z,97602.38
2022-10-23T12:34:54.271Z,97583.03
2022-10-23T12:38:58.565Z,97572.22
2022-10-23T12:43:01.218Z,97565.84
2022-10-23T12:47:04.274Z,97569.38
2022-10-23T12:51:06.365Z,97570.44
2022-10-23T12:55:13.781Z,97558.97
2022-10-23T12:59:27.003Z,97542.84
2022-10-23T13:03:30.704Z,97531.28
2022-10-23T13:07:37.474Z,97527.88
2022-10-23T13:11:41.457Z,97527.66
2022-10-23T13:15:46.679Z,97524.50
2022-10-23T13:19:48.658Z,97509.56
2022-10-23T13:23:53.048Z,97505.47
2022-10-23T13:28:19.716Z,97495.59
2022-10-23T13:32:24.509Z,97497.03
2022-10-23T13:36:32.222Z,97476.09
2022-10-23T13:40:35.809Z,97477.66
2022-10-23T13:44:38.510Z,97481.38
2022-10-23T13:48:40.507Z,97466.69
2022-10-23T13:52:42.653Z,97471.75
2022-10-23T13:56:44.690Z,97458.97
2022-10-23T14:00:49.215Z,97455.13
2022-10-23T14:04:51.548Z,97453.47
2022-10-23T14:08:53.535Z,97464.28
2022-10-23T14:12:55.519Z,97490.78
2022-10-23T14:16:57.500Z,97476.56
2022-10-23T14:21:03.947Z,97482.72
2022-10-23T14:25:06.154Z,97480.19
2022-10-23T14:29:10.847Z,97478.28
2022-10-23T14:33:16.663Z,97484.16
2022-10-23T14:37:19.505Z,97465.38
2022-10-23T14:41:21.507Z,97452.25
2022-10-23T14:45:24.177Z,97452.25
2022-10-23T14:49:26.132Z,97448.16
2022-10-23T14:53:28.103Z,97448.63
2022-10-23T14:57:30.078Z,97445.50
2022-10-23T15:01:42.280Z,97438.16
2022-10-23T15:05:47.736Z,97429.13
2022-10-23T15:09:51.767Z,97420.81
2022-10-23T15:13:54.701Z,97391.94
2022-10-23T15:17:56.963Z,97390.50
2022-10-23T15:21:59.092Z,97386.34
2022-10-23T15:26:05.490Z,97380.31
2022-10-23T15:30:08.046Z,97376.78
2022-10-23T15:34:12.920Z,97382.78
2022-10-23T15:38:15.434Z,97370.28
2022-10-23T15:42:18.951Z,97376.78
2022-10-23T15:46:21.016Z,97381.13
2022-10-23T15:50:23.242Z,97371.59
2022-10-23T15:54:28.129Z,97361.84
2022-10-23T15:58:32.734Z,97358.97
2022-10-23T16:02:34.895Z,97347.78
2022-10-23T16:06:37.272Z,97343.88
2022-10-23T16:10:40.519Z,97336.66
2022-10-23T16:14:42.654Z,97325.31
2022-10-23T16:18:45.445Z,97328.19
2022-10-23T16:22:47.695Z,97327.47
2022-10-23T16:26:53.042Z,97327.47
2022-10-23T16:30:55.157Z,97326.84
2022-10-23T16:34:57.148Z,97337.44
2022-10-23T16:39:01.153Z,97359.63
2022-10-23T16:43:21.540Z,97338.72
2022-10-23T16:47:33.357Z,97347.19
2022-10-23T16:51:35.655Z,97355.81
2022-10-23T16:55:40.609Z,97342.78
2022-10-23T16:59:42.721Z,97345.91
2022-10-23T17:03:48.185Z,97312.84
2022-10-23T17:07:50.295Z,97290.53
2022-10-23T17:11:54.011Z,97294.75
2022-10-23T17:16:07.769Z,97288.50
2022-10-23T17:20:10.486Z,97298.47
2022-10-23T17:24:13.306Z,97312.00
2022-10-23T17:28:15.386Z,97302.63
2022-10-23T17:32:17.469Z,97312.25
2022-10-23T17:36:21.479Z,97314.75
2022-10-23T17:40:25.149Z,97320.03
2022-10-23T17:44:29.044Z,97323.00
2022-10-23T17:48:31.280Z,97341.16
2022-10-23T17:52:33.274Z,97364.59
2022-10-23T17:56:37.545Z,97376.19
2022-10-23T18:00:39.528Z,97384.19
2022-10-23T18:04:41.580Z,97412.75
2022-10-23T18:08:44.361Z,97427.94
2022-10-23T18:12:46.375Z,97427.16
2022-10-23T18:16:48.910Z,97415.13
2022-10-23T18:20:50.895Z,97423.72
2022-10-23T18:24:52.984Z,97423.50
2022-10-23T18:28:58.154Z,97426.50
2022-10-23T18:33:00.241Z,97439.28
2022-10-23T18:37:02.243Z,97454.31
2022-10-23T18:41:04.290Z,97450.81
2022-10-23T18:45:06.863Z,97436.66
2022-10-23T18:49:09.429Z,97427.78
2022-10-23T18:53:11.423Z,97417.81
2022-10-23T18:57:13.424Z,97410.41
2022-10-23T19:01:15.600Z,97388.09
2022-10-23T19:05:17.692Z,97326.47
2022-10-23T19:09:20.388Z,97297.84
2022-10-23T19:13:22.424Z,97301.75
2022-10-23T19:17:31.851Z,97341.75
2022-10-23T19:21:38.170Z,97348.09
2022-10-23T19:25:40.284Z,97367.75
2022-10-23T19:29:46.551Z,97382.16
2022-10-23T19:33:48.900Z,97388.97
2022-10-23T19:37:50.904Z,97398.38
2022-10-23T19:41:53.977Z,97402.53
2022-10-23T19:45:56.026Z,97395.97
2022-10-23T19:49:58.041Z,97412.66
2022-10-23T19:54:00.297Z,97409.94
2022-10-23T19:58:02.387Z,97412.25
2022-10-23T20:02:04.585Z,97415.63
2022-10-23T20:06:15.075Z,97402.91
2022-10-23T20:10:17.167Z,97413.28
2022-10-23T20:14:19.445Z,97415.09
2022-10-23T20:18:21.427Z,97424.81
2022-10-23T20:22:23.644Z,97427.44
2022-10-23T20:26:25.770Z,97435.28
2022-10-23T20:30:27.866Z,97432.72
2022-10-23T20:34:29.987Z,97435.38
2022-10-23T20:38:31.975Z,97432.50
2022-10-23T20:42:34.019Z,97421.00
2022-10-23T20:46:36.170Z,97428.06
2022-10-23T20:50:38.255Z,97430.84
2022-10-23T20:54:40.511Z,97419.41
2022-10-23T20:58:42.986Z,97424.38
2022-10-23T21:02:47.197Z,97426.78
2022-10-23T21:07:11.779Z,97427.72
2022-10-23T21:11:16.312Z,97428.28
2022-10-23T21:15:18.402Z,97425.03
2022-10-23T21:19:20.465Z,97423.66
2022-10-23T21:23:22.524Z,97429.50
2022-10-23T21:27:24.614Z,97422.94
2022-10-23T21:31:26.629Z,97425.81
2022-10-23T21:35:30.021Z,97436.38
2022-10-23T21:39:32.378Z,97424.72
2022-10-23T21:43:34.983Z,97431.94
2022-10-23T21:47:37.343Z,97425.06
2022-10-23T21:51:40.382Z,97442.81
2022-10-23T21:55:42.414Z,97435.31
2022-10-23T21:59:44.448Z,97448.84
2022-10-23T22:03:46.512Z,97445.84
2022-10-23T22:07:48.555Z,97456.22
2022-10-23T22:11:53.011Z,97449.66
2022-10-23T22:15:55.099Z,97442.47
2022-10-23T22:19:57.084Z,97447.97
2022-10-23T22:24:00.327Z,97449.44
2022-10-23T22:28:02.423Z,97450.94
2022-10-23T22:32:04.637Z,97450.41
2022-10-23T22:36:06.877Z,97450.22
2022-10-23T22:40:09.444Z,97448.00
2022-10-23T22:44:12.117Z,97446.75
2022-10-23T22:48:14.117Z,97427.03
2022-10-23T22:52:16.131Z,97435.41
2022-10-23T22:56:21.572Z,97445.41
2022-10-23T23:00:23.700Z,97453.53
2022-10-23T23:04:42.548Z,97466.06
2022-10-23T23:08:45.352Z,97470.63
2022-10-23T23:12:50.369Z,97474.28
2022-10-23T23:16:53.113Z,97481.47
2022-10-23T23:20:59.807Z,97492.03
2022-10-23T23:25:01.859Z,97500.88
2022-10-23T23:29:03.834Z,97489.56
2022-10-23T23:33:05.910Z,97492.22
2022-10-23T23:37:07.918Z,97480.19
2022-10-23T23:41:13.860Z,97469.84
2022-10-23T23:45:15.930Z,97466.44
2022-10-23T23:49:17.938Z,97464.78
2022-10-23T23:53:19.976Z,97463.09
2022-10-23T23:57:22.056Z,97452.75
